sensor_id;sensor_type;location;lat;lon;timestamp;temperature;humidity
610;DHT22;292;48.800;9.216;2023-07-13T00:01:05;23.50;51.30
610;DHT22;292;48.800;9.216;2023-07-13T00:03:34;23.50;51.30
610;DHT22;292;48.800;9.216;2023-07-13T00:06:01;23.40;51.30
610;DHT22;292;48.800;9.216;2023-07-13T00:08:31;23.40;51.30
610;DHT22;292;48.800;9.216;2023-07-13T00:10:59;23.30;51.30
610;DHT22;292;48.800;9.216;2023-07-13T00:13:26;23.20;51.30
610;DHT22;292;48.800;9.216;2023-07-13T00:15:54;23.20;51.40
610;DHT22;292;48.800;9.216;2023-07-13T00:18:21;23.20;51.40
610;DHT22;292;48.800;9.216;2023-07-13T00:20:50;23.10;51.60
610;DHT22;292;48.800;9.216;2023-07-13T00:23:17;23.10;51.60
610;DHT22;292;48.800;9.216;2023-07-13T00:25:44;23.10;51.40
610;DHT22;292;48.800;9.216;2023-07-13T00:28:11;23.00;51.30
610;DHT22;292;48.800;9.216;2023-07-13T00:30:38;23.00;51.30
610;DHT22;292;48.800;9.216;2023-07-13T00:33:05;23.00;51.30
610;DHT22;292;48.800;9.216;2023-07-13T00:35:33;22.90;51.30
610;DHT22;292;48.800;9.216;2023-07-13T00:38:02;22.90;51.30
610;DHT22;292;48.800;9.216;2023-07-13T00:40:29;22.90;51.20
610;DHT22;292;48.800;9.216;2023-07-13T00:42:57;22.80;51.20
610;DHT22;292;48.800;9.216;2023-07-13T00:48:34;22.80;51.20
610;DHT22;292;48.800;9.216;2023-07-13T00:51:03;22.80;51.20
610;DHT22;292;48.800;9.216;2023-07-13T00:53:32;22.80;51.00
610;DHT22;292;48.800;9.216;2023-07-13T00:56:01;22.80;51.00
610;DHT22;292;48.800;9.216;2023-07-13T00:58:28;22.80;51.20
610;DHT22;292;48.800;9.216;2023-07-13T01:00:55;22.80;51.30
610;DHT22;292;48.800;9.216;2023-07-13T01:03:22;22.80;51.20
610;DHT22;292;48.800;9.216;2023-07-13T01:05:50;22.80;51.30
610;DHT22;292;48.800;9.216;2023-07-13T01:08:19;22.80;51.60
610;DHT22;292;48.800;9.216;2023-07-13T01:10:55;22.80;51.70
610;DHT22;292;48.800;9.216;2023-07-13T01:13:24;22.80;51.80
610;DHT22;292;48.800;9.216;2023-07-13T01:15:52;22.80;52.10
610;DHT22;292;48.800;9.216;2023-07-13T01:18:22;22.90;52.20
610;DHT22;292;48.800;9.216;2023-07-13T01:20:55;22.90;52.00
610;DHT22;292;48.800;9.216;2023-07-13T01:23:23;22.90;52.00
610;DHT22;292;48.800;9.216;2023-07-13T01:25:51;22.90;51.70
610;DHT22;292;48.800;9.216;2023-07-13T01:28:19;22.80;51.40
610;DHT22;292;48.800;9.216;2023-07-13T01:30:47;22.80;51.00
610;DHT22;292;48.800;9.216;2023-07-13T01:33:15;22.70;50.80
610;DHT22;292;48.800;9.216;2023-07-13T01:35:43;22.70;50.80
610;DHT22;292;48.800;9.216;2023-07-13T01:38:17;22.70;50.80
610;DHT22;292;48.800;9.216;2023-07-13T01:40:44;22.60;50.60
610;DHT22;292;48.800;9.216;2023-07-13T01:43:12;22.60;50.60
610;DHT22;292;48.800;9.216;2023-07-13T01:45:39;22.60;50.80
610;DHT22;292;48.800;9.216;2023-07-13T01:48:06;22.60;51.00
610;DHT22;292;48.800;9.216;2023-07-13T01:50:33;22.60;51.00
610;DHT22;292;48.800;9.216;2023-07-13T01:53:00;22.60;51.70
610;DHT22;292;48.800;9.216;2023-07-13T01:55:29;22.70;51.80
610;DHT22;292;48.800;9.216;2023-07-13T01:57:57;22.70;51.40
610;DHT22;292;48.800;9.216;2023-07-13T02:00:24;22.70;51.30
610;DHT22;292;48.800;9.216;2023-07-13T02:02:51;22.70;50.90
610;DHT22;292;48.800;9.216;2023-07-13T02:05:18;22.70;50.60
610;DHT22;292;48.800;9.216;2023-07-13T02:07:46;22.70;50.60
610;DHT22;292;48.800;9.216;2023-07-13T02:10:13;22.70;50.80
610;DHT22;292;48.800;9.216;2023-07-13T02:12:42;22.70;50.60
610;DHT22;292;48.800;9.216;2023-07-13T02:15:10;22.70;50.80
610;DHT22;292;48.800;9.216;2023-07-13T02:17:37;22.70;50.80
610;DHT22;292;48.800;9.216;2023-07-13T02:20:05;22.70;50.90
610;DHT22;292;48.800;9.216;2023-07-13T02:22:33;22.70;51.80
610;DHT22;292;48.800;9.216;2023-07-13T02:24:59;22.70;51.80
610;DHT22;292;48.800;9.216;2023-07-13T02:27:27;22.70;51.60
610;DHT22;292;48.800;9.216;2023-07-13T02:29:55;22.70;51.80
610;DHT22;292;48.800;9.216;2023-07-13T02:32:22;22.70;52.00
610;DHT22;292;48.800;9.216;2023-07-13T02:34:50;22.60;51.80
610;DHT22;292;48.800;9.216;2023-07-13T02:37:17;22.50;51.70
610;DHT22;292;48.800;9.216;2023-07-13T02:39:44;22.50;52.10
610;DHT22;292;48.800;9.216;2023-07-13T02:42:13;22.40;52.00
610;DHT22;292;48.800;9.216;2023-07-13T02:44:40;22.40;52.00
610;DHT22;292;48.800;9.216;2023-07-13T02:47:09;22.40;52.10
610;DHT22;292;48.800;9.216;2023-07-13T02:49:36;22.40;52.10
610;DHT22;292;48.800;9.216;2023-07-13T02:52:03;22.40;52.40
610;DHT22;292;48.800;9.216;2023-07-13T02:54:30;22.40;52.90
610;DHT22;292;48.800;9.216;2023-07-13T02:56:57;22.50;52.90
610;DHT22;292;48.800;9.216;2023-07-13T02:59:24;22.50;52.60
610;DHT22;292;48.800;9.216;2023-07-13T03:01:52;22.50;52.60
610;DHT22;292;48.800;9.216;2023-07-13T03:04:20;22.50;51.80
610;DHT22;292;48.800;9.216;2023-07-13T03:06:47;22.50;51.80
610;DHT22;292;48.800;9.216;2023-07-13T03:09:14;22.50;51.40
610;DHT22;292;48.800;9.216;2023-07-13T03:11:41;22.50;51.00
610;DHT22;292;48.800;9.216;2023-07-13T03:14:08;22.50;51.30
610;DHT22;292;48.800;9.216;2023-07-13T03:16:36;22.50;51.20
610;DHT22;292;48.800;9.216;2023-07-13T03:19:03;22.50;50.90
610;DHT22;292;48.800;9.216;2023-07-13T03:21:31;22.50;51.00
610;DHT22;292;48.800;9.216;2023-07-13T03:23:58;22.50;51.20
610;DHT22;292;48.800;9.216;2023-07-13T03:26:25;22.40;51.30
610;DHT22;292;48.800;9.216;2023-07-13T03:28:52;22.40;52.10
610;DHT22;292;48.800;9.216;2023-07-13T03:31:21;22.40;52.40
610;DHT22;292;48.800;9.216;2023-07-13T03:33:48;22.40;52.40
610;DHT22;292;48.800;9.216;2023-07-13T03:36:17;22.40;52.40
610;DHT22;292;48.800;9.216;2023-07-13T03:38:47;22.40;52.20
610;DHT22;292;48.800;9.216;2023-07-13T03:41:15;22.40;52.50
610;DHT22;292;48.800;9.216;2023-07-13T03:43:42;22.40;53.00
610;DHT22;292;48.800;9.216;2023-07-13T03:46:09;22.40;53.70
610;DHT22;292;48.800;9.216;2023-07-13T03:48:36;22.40;53.70
610;DHT22;292;48.800;9.216;2023-07-13T03:51:05;22.40;53.40
610;DHT22;292;48.800;9.216;2023-07-13T03:53:32;22.40;53.30
610;DHT22;292;48.800;9.216;2023-07-13T03:56:00;22.40;53.30
610;DHT22;292;48.800;9.216;2023-07-13T03:58:33;22.40;53.80
610;DHT22;292;48.800;9.216;2023-07-13T04:01:02;22.40;54.10
610;DHT22;292;48.800;9.216;2023-07-13T04:03:30;22.40;54.00
610;DHT22;292;48.800;9.216;2023-07-13T04:05:58;22.40;53.80
610;DHT22;292;48.800;9.216;2023-07-13T04:08:26;22.40;53.40
610;DHT22;292;48.800;9.216;2023-07-13T04:10:54;22.40;53.20
610;DHT22;292;48.800;9.216;2023-07-13T04:13:23;22.40;53.00
610;DHT22;292;48.800;9.216;2023-07-13T04:15:51;22.40;52.50
610;DHT22;292;48.800;9.216;2023-07-13T04:18:19;22.40;52.20
610;DHT22;292;48.800;9.216;2023-07-13T04:20:46;22.40;52.00
610;DHT22;292;48.800;9.216;2023-07-13T04:23:13;22.40;52.50
610;DHT22;292;48.800;9.216;2023-07-13T04:25:43;22.40;51.70
610;DHT22;292;48.800;9.216;2023-07-13T04:28:10;22.30;51.30
610;DHT22;292;48.800;9.216;2023-07-13T04:30:39;22.30;51.00
610;DHT22;292;48.800;9.216;2023-07-13T04:33:06;22.30;51.20
610;DHT22;292;48.800;9.216;2023-07-13T04:35:34;22.30;51.30
610;DHT22;292;48.800;9.216;2023-07-13T04:38:01;22.30;51.20
610;DHT22;292;48.800;9.216;2023-07-13T04:40:29;22.30;51.30
610;DHT22;292;48.800;9.216;2023-07-13T04:42:56;22.30;50.90
610;DHT22;292;48.800;9.216;2023-07-13T04:45:24;22.30;51.00
610;DHT22;292;48.800;9.216;2023-07-13T04:47:53;22.20;50.60
610;DHT22;292;48.800;9.216;2023-07-13T04:50:20;22.20;50.80
610;DHT22;292;48.800;9.216;2023-07-13T04:52:49;22.20;50.90
610;DHT22;292;48.800;9.216;2023-07-13T04:55:17;22.20;51.40
610;DHT22;292;48.800;9.216;2023-07-13T04:57:44;22.20;51.20
610;DHT22;292;48.800;9.216;2023-07-13T05:00:12;22.20;51.00
610;DHT22;292;48.800;9.216;2023-07-13T05:02:43;22.20;51.00
610;DHT22;292;48.800;9.216;2023-07-13T05:05:12;22.20;51.20
610;DHT22;292;48.800;9.216;2023-07-13T05:07:39;22.20;51.70
610;DHT22;292;48.800;9.216;2023-07-13T05:10:07;22.20;51.60
610;DHT22;292;48.800;9.216;2023-07-13T05:12:35;22.20;51.60
610;DHT22;292;48.800;9.216;2023-07-13T05:15:02;22.30;51.40
610;DHT22;292;48.800;9.216;2023-07-13T05:17:29;22.30;51.30
610;DHT22;292;48.800;9.216;2023-07-13T05:19:56;22.30;51.20
610;DHT22;292;48.800;9.216;2023-07-13T05:22:25;22.30;51.20
610;DHT22;292;48.800;9.216;2023-07-13T05:24:52;22.30;51.30
610;DHT22;292;48.800;9.216;2023-07-13T05:27:19;22.30;51.40
610;DHT22;292;48.800;9.216;2023-07-13T05:29:46;22.30;51.20
610;DHT22;292;48.800;9.216;2023-07-13T05:32:14;22.40;51.20
610;DHT22;292;48.800;9.216;2023-07-13T05:34:40;22.40;51.40
610;DHT22;292;48.800;9.216;2023-07-13T05:37:08;22.40;50.90
610;DHT22;292;48.800;9.216;2023-07-13T05:39:36;22.40;50.60
610;DHT22;292;48.800;9.216;2023-07-13T05:42:04;22.40;50.50
610;DHT22;292;48.800;9.216;2023-07-13T05:44:31;22.40;50.40
610;DHT22;292;48.800;9.216;2023-07-13T05:46:58;22.40;50.20
610;DHT22;292;48.800;9.216;2023-07-13T05:49:25;22.30;50.60
610;DHT22;292;48.800;9.216;2023-07-13T05:51:52;22.30;50.80
610;DHT22;292;48.800;9.216;2023-07-13T05:54:19;22.30;50.40
610;DHT22;292;48.800;9.216;2023-07-13T05:56:48;22.30;50.40
610;DHT22;292;48.800;9.216;2023-07-13T05:59:15;22.30;50.50
610;DHT22;292;48.800;9.216;2023-07-13T06:01:42;22.30;50.40
610;DHT22;292;48.800;9.216;2023-07-13T06:04:09;22.30;50.10
610;DHT22;292;48.800;9.216;2023-07-13T06:06:36;22.40;50.10
610;DHT22;292;48.800;9.216;2023-07-13T06:09:03;22.40;50.00
610;DHT22;292;48.800;9.216;2023-07-13T06:11:30;22.40;50.00
610;DHT22;292;48.800;9.216;2023-07-13T06:13:58;22.40;49.80
610;DHT22;292;48.800;9.216;2023-07-13T06:16:26;22.40;49.60
610;DHT22;292;48.800;9.216;2023-07-13T06:18:53;22.40;49.40
610;DHT22;292;48.800;9.216;2023-07-13T06:21:21;22.40;49.30
610;DHT22;292;48.800;9.216;2023-07-13T06:23:50;22.40;49.30
610;DHT22;292;48.800;9.216;2023-07-13T06:26:18;22.50;49.20
610;DHT22;292;48.800;9.216;2023-07-13T06:28:46;22.50;49.00
610;DHT22;292;48.800;9.216;2023-07-13T06:31:15;22.50;49.00
610;DHT22;292;48.800;9.216;2023-07-13T06:33:43;22.50;48.50
610;DHT22;292;48.800;9.216;2023-07-13T06:36:10;22.50;48.40
610;DHT22;292;48.800;9.216;2023-07-13T06:38:37;22.50;48.80
610;DHT22;292;48.800;9.216;2023-07-13T06:41:05;22.60;48.50
610;DHT22;292;48.800;9.216;2023-07-13T06:43:33;22.60;48.40
610;DHT22;292;48.800;9.216;2023-07-13T06:46:00;22.60;48.40
610;DHT22;292;48.800;9.216;2023-07-13T06:48:29;22.60;48.20
610;DHT22;292;48.800;9.216;2023-07-13T06:50:56;22.70;48.10
610;DHT22;292;48.800;9.216;2023-07-13T06:53:24;22.70;48.10
610;DHT22;292;48.800;9.216;2023-07-13T06:55:52;22.70;48.50
610;DHT22;292;48.800;9.216;2023-07-13T06:58:20;22.80;48.80
610;DHT22;292;48.800;9.216;2023-07-13T07:00:50;22.80;48.50
610;DHT22;292;48.800;9.216;2023-07-13T07:03:18;22.80;48.40
610;DHT22;292;48.800;9.216;2023-07-13T07:05:46;22.80;48.20
610;DHT22;292;48.800;9.216;2023-07-13T07:08:14;22.80;48.10
610;DHT22;292;48.800;9.216;2023-07-13T07:10:41;22.80;48.00
610;DHT22;292;48.800;9.216;2023-07-13T07:13:08;22.80;47.80
610;DHT22;292;48.800;9.216;2023-07-13T07:15:36;22.90;47.80
610;DHT22;292;48.800;9.216;2023-07-13T07:18:03;22.90;47.70
610;DHT22;292;48.800;9.216;2023-07-13T07:20:31;23.00;47.30
610;DHT22;292;48.800;9.216;2023-07-13T07:22:59;23.10;46.90
610;DHT22;292;48.800;9.216;2023-07-13T07:25:26;23.10;46.80
610;DHT22;292;48.800;9.216;2023-07-13T07:27:57;23.20;46.40
610;DHT22;292;48.800;9.216;2023-07-13T07:30:25;23.20;46.00
610;DHT22;292;48.800;9.216;2023-07-13T07:32:54;23.30;45.80
610;DHT22;292;48.800;9.216;2023-07-13T07:35:21;23.40;45.30
610;DHT22;292;48.800;9.216;2023-07-13T07:37:48;23.40;44.80
610;DHT22;292;48.800;9.216;2023-07-13T07:40:17;23.50;44.60
610;DHT22;292;48.800;9.216;2023-07-13T07:42:46;23.50;44.50
610;DHT22;292;48.800;9.216;2023-07-13T07:45:14;23.50;44.40
610;DHT22;292;48.800;9.216;2023-07-13T07:47:42;23.50;44.00
610;DHT22;292;48.800;9.216;2023-07-13T07:50:09;23.60;43.30
610;DHT22;292;48.800;9.216;2023-07-13T07:52:37;23.70;42.90
610;DHT22;292;48.800;9.216;2023-07-13T07:55:05;23.70;42.90
610;DHT22;292;48.800;9.216;2023-07-13T07:57:34;23.70;42.80
610;DHT22;292;48.800;9.216;2023-07-13T08:00:02;23.80;42.20
610;DHT22;292;48.800;9.216;2023-07-13T08:02:30;23.80;41.80
610;DHT22;292;48.800;9.216;2023-07-13T08:04:57;23.90;41.70
610;DHT22;292;48.800;9.216;2023-07-13T08:07:28;23.90;41.70
610;DHT22;292;48.800;9.216;2023-07-13T08:10:10;24.00;41.40
610;DHT22;292;48.800;9.216;2023-07-13T08:12:42;24.00;41.30
610;DHT22;292;48.800;9.216;2023-07-13T08:15:13;24.10;41.30
610;DHT22;292;48.800;9.216;2023-07-13T08:18:00;24.10;41.20
610;DHT22;292;48.800;9.216;2023-07-13T08:20:48;24.10;41.20
610;DHT22;292;48.800;9.216;2023-07-13T08:23:15;24.20;41.00
610;DHT22;292;48.800;9.216;2023-07-13T08:25:50;24.20;40.60
610;DHT22;292;48.800;9.216;2023-07-13T08:28:19;24.30;40.50
610;DHT22;292;48.800;9.216;2023-07-13T08:30:46;24.30;40.50
610;DHT22;292;48.800;9.216;2023-07-13T08:33:14;24.40;40.60
610;DHT22;292;48.800;9.216;2023-07-13T08:35:41;24.40;40.10
610;DHT22;292;48.800;9.216;2023-07-13T08:38:08;24.40;40.00
610;DHT22;292;48.800;9.216;2023-07-13T08:40:35;24.40;40.00
610;DHT22;292;48.800;9.216;2023-07-13T08:43:02;24.40;40.00
610;DHT22;292;48.800;9.216;2023-07-13T08:45:37;24.50;39.70
610;DHT22;292;48.800;9.216;2023-07-13T08:48:09;24.50;39.30
610;DHT22;292;48.800;9.216;2023-07-13T08:50:43;24.60;39.40
610;DHT22;292;48.800;9.216;2023-07-13T08:53:15;24.60;39.40
610;DHT22;292;48.800;9.216;2023-07-13T08:55:43;24.70;39.40
610;DHT22;292;48.800;9.216;2023-07-13T08:58:12;24.70;39.30
610;DHT22;292;48.800;9.216;2023-07-13T09:00:50;24.80;39.30
610;DHT22;292;48.800;9.216;2023-07-13T09:03:21;24.80;39.30
610;DHT22;292;48.800;9.216;2023-07-13T09:05:53;24.90;39.20
610;DHT22;292;48.800;9.216;2023-07-13T09:08:33;24.90;39.30
610;DHT22;292;48.800;9.216;2023-07-13T09:11:11;25.00;39.20
610;DHT22;292;48.800;9.216;2023-07-13T09:13:58;25.00;39.30
610;DHT22;292;48.800;9.216;2023-07-13T09:16:29;25.00;39.30
610;DHT22;292;48.800;9.216;2023-07-13T09:19:00;25.00;39.20
610;DHT22;292;48.800;9.216;2023-07-13T09:21:31;25.10;38.90
610;DHT22;292;48.800;9.216;2023-07-13T09:24:22;25.10;38.90
610;DHT22;292;48.800;9.216;2023-07-13T09:27:03;25.20;38.90
610;DHT22;292;48.800;9.216;2023-07-13T09:29:42;25.30;38.60
610;DHT22;292;48.800;9.216;2023-07-13T09:32:14;25.30;38.50
610;DHT22;292;48.800;9.216;2023-07-13T09:34:50;25.30;38.50
610;DHT22;292;48.800;9.216;2023-07-13T09:37:29;25.40;38.20
610;DHT22;292;48.800;9.216;2023-07-13T09:39:58;25.40;38.10
610;DHT22;292;48.800;9.216;2023-07-13T09:42:28;25.40;38.00
610;DHT22;292;48.800;9.216;2023-07-13T09:44:57;25.40;37.80
610;DHT22;292;48.800;9.216;2023-07-13T09:47:28;25.40;37.70
610;DHT22;292;48.800;9.216;2023-07-13T09:49:57;25.50;37.60
610;DHT22;292;48.800;9.216;2023-07-13T09:52:25;25.60;37.60
610;DHT22;292;48.800;9.216;2023-07-13T09:54:54;25.60;37.20
610;DHT22;292;48.800;9.216;2023-07-13T09:57:26;25.60;36.80
610;DHT22;292;48.800;9.216;2023-07-13T09:59:56;25.70;36.80
610;DHT22;292;48.800;9.216;2023-07-13T10:02:28;25.70;36.80
610;DHT22;292;48.800;9.216;2023-07-13T10:05:01;25.80;36.60
610;DHT22;292;48.800;9.216;2023-07-13T10:07:29;25.80;36.40
610;DHT22;292;48.800;9.216;2023-07-13T10:09:58;25.80;36.20
610;DHT22;292;48.800;9.216;2023-07-13T10:12:27;25.80;36.10
610;DHT22;292;48.800;9.216;2023-07-13T10:14:55;25.70;36.20
610;DHT22;292;48.800;9.216;2023-07-13T10:17:30;25.80;36.40
610;DHT22;292;48.800;9.216;2023-07-13T10:19:59;25.80;36.40
610;DHT22;292;48.800;9.216;2023-07-13T10:22:37;25.90;36.40
610;DHT22;292;48.800;9.216;2023-07-13T10:25:15;26.00;36.50
610;DHT22;292;48.800;9.216;2023-07-13T10:27:44;26.00;36.50
610;DHT22;292;48.800;9.216;2023-07-13T10:30:15;26.10;36.40
610;DHT22;292;48.800;9.216;2023-07-13T10:32:47;26.10;35.80
610;DHT22;292;48.800;9.216;2023-07-13T10:35:16;26.10;36.00
610;DHT22;292;48.800;9.216;2023-07-13T10:37:49;26.10;36.00
610;DHT22;292;48.800;9.216;2023-07-13T10:40:20;26.20;36.10
610;DHT22;292;48.800;9.216;2023-07-13T10:42:51;26.30;36.10
610;DHT22;292;48.800;9.216;2023-07-13T10:45:21;26.30;35.70
610;DHT22;292;48.800;9.216;2023-07-13T10:47:54;26.30;35.30
610;DHT22;292;48.800;9.216;2023-07-13T10:50:23;26.30;35.30
610;DHT22;292;48.800;9.216;2023-07-13T10:52:52;26.30;35.20
610;DHT22;292;48.800;9.216;2023-07-13T10:55:34;26.30;35.30
610;DHT22;292;48.800;9.216;2023-07-13T10:58:08;26.40;35.20
610;DHT22;292;48.800;9.216;2023-07-13T11:00:46;26.50;35.40
610;DHT22;292;48.800;9.216;2023-07-13T11:03:18;26.50;35.70
610;DHT22;292;48.800;9.216;2023-07-13T11:05:49;26.50;35.70
610;DHT22;292;48.800;9.216;2023-07-13T11:08:20;26.60;35.80
610;DHT22;292;48.800;9.216;2023-07-13T11:10:58;26.70;35.70
610;DHT22;292;48.800;9.216;2023-07-13T11:13:55;26.70;35.70
610;DHT22;292;48.800;9.216;2023-07-13T11:16:42;26.80;35.30
610;DHT22;292;48.800;9.216;2023-07-13T11:19:38;26.90;35.20
610;DHT22;292;48.800;9.216;2023-07-13T11:22:41;27.00;35.00
610;DHT22;292;48.800;9.216;2023-07-13T11:25:28;27.00;35.00
610;DHT22;292;48.800;9.216;2023-07-13T11:28:14;27.00;34.90
610;DHT22;292;48.800;9.216;2023-07-13T11:30:45;27.00;34.80
610;DHT22;292;48.800;9.216;2023-07-13T11:33:19;27.00;34.80
610;DHT22;292;48.800;9.216;2023-07-13T11:35:58;27.00;34.90
610;DHT22;292;48.800;9.216;2023-07-13T11:38:33;27.10;34.80
610;DHT22;292;48.800;9.216;2023-07-13T11:41:04;27.10;34.40
610;DHT22;292;48.800;9.216;2023-07-13T11:43:34;27.10;34.10
610;DHT22;292;48.800;9.216;2023-07-13T11:46:15;27.20;34.00
610;DHT22;292;48.800;9.216;2023-07-13T11:48:45;27.20;34.10
610;DHT22;292;48.800;9.216;2023-07-13T11:51:19;27.30;34.00
610;DHT22;292;48.800;9.216;2023-07-13T11:53:49;27.30;33.40
610;DHT22;292;48.800;9.216;2023-07-13T11:56:17;27.30;33.40
610;DHT22;292;48.800;9.216;2023-07-13T11:58:48;27.20;33.40
610;DHT22;292;48.800;9.216;2023-07-13T12:01:20;27.30;33.30
610;DHT22;292;48.800;9.216;2023-07-13T12:03:48;27.20;33.20
610;DHT22;292;48.800;9.216;2023-07-13T12:06:33;27.20;33.30
610;DHT22;292;48.800;9.216;2023-07-13T12:09:11;27.20;33.40
610;DHT22;292;48.800;9.216;2023-07-13T12:11:41;27.30;33.60
610;DHT22;292;48.800;9.216;2023-07-13T12:14:13;27.40;33.60
610;DHT22;292;48.800;9.216;2023-07-13T12:16:41;27.50;33.30
610;DHT22;292;48.800;9.216;2023-07-13T12:19:18;27.60;33.20
610;DHT22;292;48.800;9.216;2023-07-13T12:21:48;27.60;32.90
610;DHT22;292;48.800;9.216;2023-07-13T12:24:17;27.70;32.80
610;DHT22;292;48.800;9.216;2023-07-13T12:26:49;27.70;32.60
610;DHT22;292;48.800;9.216;2023-07-13T12:29:17;27.80;32.60
610;DHT22;292;48.800;9.216;2023-07-13T12:31:47;27.80;32.40
610;DHT22;292;48.800;9.216;2023-07-13T12:34:15;27.90;32.40
610;DHT22;292;48.800;9.216;2023-07-13T12:36:49;27.80;31.80
610;DHT22;292;48.800;9.216;2023-07-13T12:39:19;27.80;31.70
610;DHT22;292;48.800;9.216;2023-07-13T12:41:47;27.80;31.70
610;DHT22;292;48.800;9.216;2023-07-13T12:44:18;27.80;31.70
610;DHT22;292;48.800;9.216;2023-07-13T12:46:56;27.80;31.60
610;DHT22;292;48.800;9.216;2023-07-13T12:49:26;27.80;31.40
610;DHT22;292;48.800;9.216;2023-07-13T12:51:59;27.70;31.30
610;DHT22;292;48.800;9.216;2023-07-13T12:54:27;27.70;31.40
610;DHT22;292;48.800;9.216;2023-07-13T12:56:57;27.70;31.40
610;DHT22;292;48.800;9.216;2023-07-13T12:59:29;27.80;31.30
610;DHT22;292;48.800;9.216;2023-07-13T13:01:59;27.80;31.20
610;DHT22;292;48.800;9.216;2023-07-13T13:04:26;27.90;30.90
610;DHT22;292;48.800;9.216;2023-07-13T13:07:02;27.90;30.60
610;DHT22;292;48.800;9.216;2023-07-13T13:09:30;27.90;30.50
610;DHT22;292;48.800;9.216;2023-07-13T13:11:58;27.90;30.60
610;DHT22;292;48.800;9.216;2023-07-13T13:14:25;27.90;30.80
610;DHT22;292;48.800;9.216;2023-07-13T13:16:53;27.90;30.60
610;DHT22;292;48.800;9.216;2023-07-13T13:19:22;28.00;30.60
610;DHT22;292;48.800;9.216;2023-07-13T13:21:50;28.00;30.20
610;DHT22;292;48.800;9.216;2023-07-13T13:24:21;28.00;29.90
610;DHT22;292;48.800;9.216;2023-07-13T13:26:49;28.10;29.80
610;DHT22;292;48.800;9.216;2023-07-13T13:29:18;28.10;29.70
610;DHT22;292;48.800;9.216;2023-07-13T13:31:45;28.10;29.60
610;DHT22;292;48.800;9.216;2023-07-13T13:34:17;28.00;29.50
610;DHT22;292;48.800;9.216;2023-07-13T13:36:46;28.00;29.50
610;DHT22;292;48.800;9.216;2023-07-13T13:39:21;28.00;29.70
610;DHT22;292;48.800;9.216;2023-07-13T13:41:49;28.00;29.70
610;DHT22;292;48.800;9.216;2023-07-13T13:44:19;28.10;29.70
610;DHT22;292;48.800;9.216;2023-07-13T13:46:49;28.10;29.70
610;DHT22;292;48.800;9.216;2023-07-13T13:49:19;28.20;29.70
610;DHT22;292;48.800;9.216;2023-07-13T13:51:48;28.30;29.40
610;DHT22;292;48.800;9.216;2023-07-13T13:54:17;28.40;29.40
610;DHT22;292;48.800;9.216;2023-07-13T13:56:48;28.40;29.20
610;DHT22;292;48.800;9.216;2023-07-13T13:59:15;28.50;29.10
610;DHT22;292;48.800;9.216;2023-07-13T14:01:44;28.60;29.10
610;DHT22;292;48.800;9.216;2023-07-13T14:04:15;28.70;29.10
610;DHT22;292;48.800;9.216;2023-07-13T14:06:43;28.60;28.90
610;DHT22;292;48.800;9.216;2023-07-13T14:09:11;28.60;28.90
610;DHT22;292;48.800;9.216;2023-07-13T14:11:39;28.60;29.00
610;DHT22;292;48.800;9.216;2023-07-13T14:14:14;28.70;29.10
610;DHT22;292;48.800;9.216;2023-07-13T14:16:42;28.70;29.00
610;DHT22;292;48.800;9.216;2023-07-13T14:19:10;28.70;28.80
610;DHT22;292;48.800;9.216;2023-07-13T14:21:39;28.60;28.70
610;DHT22;292;48.800;9.216;2023-07-13T14:24:07;28.70;28.90
610;DHT22;292;48.800;9.216;2023-07-13T14:26:37;28.70;29.30
610;DHT22;292;48.800;9.216;2023-07-13T14:29:13;28.70;29.10
610;DHT22;292;48.800;9.216;2023-07-13T14:31:41;28.80;29.00
610;DHT22;292;48.800;9.216;2023-07-13T14:34:09;28.70;28.80
610;DHT22;292;48.800;9.216;2023-07-13T14:36:39;28.70;28.70
610;DHT22;292;48.800;9.216;2023-07-13T14:39:12;28.70;28.50
610;DHT22;292;48.800;9.216;2023-07-13T14:41:39;28.60;28.30
610;DHT22;292;48.800;9.216;2023-07-13T14:44:13;28.60;28.20
610;DHT22;292;48.800;9.216;2023-07-13T14:46:42;28.70;28.50
610;DHT22;292;48.800;9.216;2023-07-13T14:49:15;28.80;28.60
610;DHT22;292;48.800;9.216;2023-07-13T14:51:43;28.80;28.20
610;DHT22;292;48.800;9.216;2023-07-13T14:54:10;28.80;28.20
610;DHT22;292;48.800;9.216;2023-07-13T14:56:37;28.70;28.40
610;DHT22;292;48.800;9.216;2023-07-13T14:59:04;28.70;28.50
610;DHT22;292;48.800;9.216;2023-07-13T15:01:35;28.70;28.50
610;DHT22;292;48.800;9.216;2023-07-13T15:04:03;28.70;28.60
610;DHT22;292;48.800;9.216;2023-07-13T15:06:30;28.80;28.70
610;DHT22;292;48.800;9.216;2023-07-13T15:08:58;28.80;28.60
610;DHT22;292;48.800;9.216;2023-07-13T15:11:25;28.80;28.60
610;DHT22;292;48.800;9.216;2023-07-13T15:13:52;28.70;28.70
610;DHT22;292;48.800;9.216;2023-07-13T15:16:23;28.70;28.80
610;DHT22;292;48.800;9.216;2023-07-13T15:18:52;28.70;29.00
610;DHT22;292;48.800;9.216;2023-07-13T15:21:21;28.70;29.00
610;DHT22;292;48.800;9.216;2023-07-13T15:23:50;28.60;28.90
610;DHT22;292;48.800;9.216;2023-07-13T15:26:19;28.70;29.00
610;DHT22;292;48.800;9.216;2023-07-13T15:28:48;28.70;29.10
610;DHT22;292;48.800;9.216;2023-07-13T15:31:20;28.80;29.00
610;DHT22;292;48.800;9.216;2023-07-13T15:33:49;28.90;28.90
610;DHT22;292;48.800;9.216;2023-07-13T15:36:20;29.00;28.80
610;DHT22;292;48.800;9.216;2023-07-13T15:38:50;29.00;28.70
610;DHT22;292;48.800;9.216;2023-07-13T15:41:20;29.10;28.60
610;DHT22;292;48.800;9.216;2023-07-13T15:43:49;29.10;28.50
610;DHT22;292;48.800;9.216;2023-07-13T15:46:18;29.10;28.40
610;DHT22;292;48.800;9.216;2023-07-13T15:48:46;29.10;28.40
610;DHT22;292;48.800;9.216;2023-07-13T15:51:23;29.20;28.30
610;DHT22;292;48.800;9.216;2023-07-13T15:53:53;29.20;28.20
610;DHT22;292;48.800;9.216;2023-07-13T15:56:23;29.20;28.10
610;DHT22;292;48.800;9.216;2023-07-13T15:58:51;29.20;28.10
610;DHT22;292;48.800;9.216;2023-07-13T16:01:18;29.20;28.00
610;DHT22;292;48.800;9.216;2023-07-13T16:03:46;29.20;28.20
610;DHT22;292;48.800;9.216;2023-07-13T16:06:15;29.20;28.00
610;DHT22;292;48.800;9.216;2023-07-13T16:08:47;29.20;28.00
610;DHT22;292;48.800;9.216;2023-07-13T16:11:20;29.20;28.00
610;DHT22;292;48.800;9.216;2023-07-13T16:13:48;29.30;27.90
610;DHT22;292;48.800;9.216;2023-07-13T16:16:22;29.30;28.00
610;DHT22;292;48.800;9.216;2023-07-13T16:18:52;29.40;28.00
610;DHT22;292;48.800;9.216;2023-07-13T16:21:22;29.50;28.00
610;DHT22;292;48.800;9.216;2023-07-13T16:23:53;29.50;28.00
610;DHT22;292;48.800;9.216;2023-07-13T16:26:31;29.50;27.90
610;DHT22;292;48.800;9.216;2023-07-13T16:29:10;29.60;27.80
610;DHT22;292;48.800;9.216;2023-07-13T16:31:37;29.60;27.70
610;DHT22;292;48.800;9.216;2023-07-13T16:34:04;29.70;27.60
610;DHT22;292;48.800;9.216;2023-07-13T16:36:36;29.70;27.60
610;DHT22;292;48.800;9.216;2023-07-13T16:39:11;29.70;27.50
610;DHT22;292;48.800;9.216;2023-07-13T16:41:40;29.80;27.40
610;DHT22;292;48.800;9.216;2023-07-13T16:44:11;29.80;27.50
610;DHT22;292;48.800;9.216;2023-07-13T16:46:38;29.90;27.60
610;DHT22;292;48.800;9.216;2023-07-13T16:49:20;29.90;27.80
610;DHT22;292;48.800;9.216;2023-07-13T16:51:48;30.00;27.60
610;DHT22;292;48.800;9.216;2023-07-13T16:54:17;30.00;27.50